CheckWX is a tool to help pilots better visualize weather data.  It is not intended as a substitute for an official pre-flight weather briefing.

09:29:01 UTC

KCNO METAR
Chino Airport
Chino, California, USA
Current

36 mins ago

KCNO 200853Z AUTO 00000KT 8SM CLR 03/01 A3011 RMK AO2 SLP197 T00280011 56009 $
Observed
Feb-20 @ 08:53 UTC
Visibility
12,875 meters
Flight Rules
VFR
Cloud Levels
  • Clear skies
Temperature
C / 37°F
Dewpoint
C / 34°F
Humidity
87%
Altimeter
30.11" Hg
Pressure
1019.7 hPa
Previous

2 hours ago

KCNO 200753Z AUTO 06003KT 8SM CLR 04/01 A3012 RMK AO2 SLP199 T00390006 401391017 $
Observed
Feb-20 @ 07:53 UTC
Wind
  • 060° at 3 KTS
Visibility
12,875 meters
Flight Rules
VFR
Cloud Levels
  • Clear skies
Temperature
C / 39°F
Dewpoint
C / 34°F
Humidity
81%
Altimeter
30.12" Hg
Pressure
1019.9 hPa
Previous

3 hours ago

KCNO 200653Z AUTO 11003KT 9SM CLR 03/01 A3012 RMK AO2 SLP201 T00330006 $
Observed
Feb-20 @ 06:53 UTC
Wind
  • 110° at 3 KTS
Visibility
14,484 meters
Flight Rules
VFR
Cloud Levels
  • Clear skies
Temperature
C / 37°F
Dewpoint
C / 34°F
Humidity
87%
Altimeter
30.12" Hg
Pressure
1020.1 hPa